sensor_id;sensor_type;location;lat;lon;timestamp;pressure;altitude;pressure_sealevel;temperature;humidity
52469;BME280;38381;53.688;10.776;2023-04-23T00:00:47;100213.16;;;15.97;61.97
52469;BME280;38381;53.688;10.776;2023-04-23T00:05:51;100207.25;;;15.90;62.41
52469;BME280;38381;53.688;10.776;2023-04-23T00:10:51;100205.75;;;15.80;63.53
52469;BME280;38381;53.688;10.776;2023-04-23T00:15:52;100205.28;;;15.61;64.93
52469;BME280;38381;53.688;10.776;2023-04-23T00:20:53;100195.72;;;15.60;64.24
52469;BME280;38381;53.688;10.776;2023-04-23T00:25:53;100190.88;;;15.43;65.19
52469;BME280;38381;53.688;10.776;2023-04-23T00:30:53;100190.94;;;15.40;65.40
52469;BME280;38381;53.688;10.776;2023-04-23T00:35:54;100194.34;;;15.43;65.49
52469;BME280;38381;53.688;10.776;2023-04-23T00:40:54;100190.88;;;15.43;66.03
52469;BME280;38381;53.688;10.776;2023-04-23T00:45:55;100186.63;;;15.39;66.47
52469;BME280;38381;53.688;10.776;2023-04-23T00:51:01;100178.22;;;15.26;66.24
52469;BME280;38381;53.688;10.776;2023-04-23T00:56:04;100177.41;;;15.22;67.09
52469;BME280;38381;53.688;10.776;2023-04-23T01:01:04;100178.38;;;15.17;65.83
52469;BME280;38381;53.688;10.776;2023-04-23T01:06:05;100183.88;;;15.04;67.25
52469;BME280;38381;53.688;10.776;2023-04-23T01:11:06;100178.94;;;14.91;67.57
52469;BME280;38381;53.688;10.776;2023-04-23T01:16:06;100183.31;;;14.90;67.23
52469;BME280;38381;53.688;10.776;2023-04-23T01:21:11;100182.47;;;14.88;67.61
52469;BME280;38381;53.688;10.776;2023-04-23T01:26:11;100182.72;;;14.76;68.83
52469;BME280;38381;53.688;10.776;2023-04-23T01:31:15;100188.66;;;14.84;67.93
52469;BME280;38381;53.688;10.776;2023-04-23T01:36:17;100186.94;;;14.83;69.10
52469;BME280;38381;53.688;10.776;2023-04-23T01:41:18;100179.84;;;14.89;69.13
52469;BME280;38381;53.688;10.776;2023-04-23T01:46:19;100187.66;;;14.91;69.79
52469;BME280;38381;53.688;10.776;2023-04-23T01:51:20;100186.13;;;14.81;71.14
52469;BME280;38381;53.688;10.776;2023-04-23T01:56:24;100183.47;;;14.82;71.71
52469;BME280;38381;53.688;10.776;2023-04-23T02:01:45;100174.19;;;14.67;73.96
52469;BME280;38381;53.688;10.776;2023-04-23T02:06:49;100174.25;;;14.64;74.24
52469;BME280;38381;53.688;10.776;2023-04-23T02:11:50;100175.84;;;14.72;74.33
52469;BME280;38381;53.688;10.776;2023-04-23T02:16:50;100184.47;;;14.77;75.63
52469;BME280;38381;53.688;10.776;2023-04-23T02:21:50;100187.38;;;14.60;77.33
52469;BME280;38381;53.688;10.776;2023-04-23T02:26:51;100190.03;;;14.58;77.78
52469;BME280;38381;53.688;10.776;2023-04-23T02:31:51;100182.25;;;14.54;78.73
52469;BME280;38381;53.688;10.776;2023-04-23T02:36:52;100180.78;;;14.39;79.49
52469;BME280;38381;53.688;10.776;2023-04-23T02:41:52;100182.75;;;14.27;80.61
52469;BME280;38381;53.688;10.776;2023-04-23T02:46:52;100180.16;;;14.27;81.02
52469;BME280;38381;53.688;10.776;2023-04-23T02:51:53;100182.75;;;14.27;81.40
52469;BME280;38381;53.688;10.776;2023-04-23T02:56:53;100175.16;;;14.14;82.20
52469;BME280;38381;53.688;10.776;2023-04-23T03:01:54;100173.59;;;14.03;83.94
52469;BME280;38381;53.688;10.776;2023-04-23T03:06:54;100178.88;;;14.00;84.12
52469;BME280;38381;53.688;10.776;2023-04-23T03:11:55;100177.97;;;14.03;84.07
52469;BME280;38381;53.688;10.776;2023-04-23T03:16:56;100174.56;;;13.99;85.55
52469;BME280;38381;53.688;10.776;2023-04-23T03:21:57;100173.59;;;14.05;84.54
52469;BME280;38381;53.688;10.776;2023-04-23T03:26:57;100181.25;;;14.13;84.68
52469;BME280;38381;53.688;10.776;2023-04-23T03:31:58;100178.47;;;14.23;84.37
52469;BME280;38381;53.688;10.776;2023-04-23T03:36:58;100191.31;;;14.34;85.71
52469;BME280;38381;53.688;10.776;2023-04-23T03:41:58;100200.28;;;14.19;84.45
52469;BME280;38381;53.688;10.776;2023-04-23T03:46:59;100211.03;;;14.01;82.19
52469;BME280;38381;53.688;10.776;2023-04-23T03:51:59;100201.19;;;13.64;81.87
52469;BME280;38381;53.688;10.776;2023-04-23T03:57:00;100204.06;;;13.45;82.21
52469;BME280;38381;53.688;10.776;2023-04-23T04:02:00;100220.56;;;13.43;82.59
52469;BME280;38381;53.688;10.776;2023-04-23T04:07:03;100220.03;;;13.18;83.20
52469;BME280;38381;53.688;10.776;2023-04-23T04:12:05;100225.44;;;13.01;82.91
52469;BME280;38381;53.688;10.776;2023-04-23T04:17:06;100228.13;;;12.95;83.16
52469;BME280;38381;53.688;10.776;2023-04-23T04:22:08;100242.19;;;12.78;83.46
52469;BME280;38381;53.688;10.776;2023-04-23T04:27:08;100237.97;;;12.66;83.99
52469;BME280;38381;53.688;10.776;2023-04-23T04:32:09;100239.84;;;12.52;84.26
52469;BME280;38381;53.688;10.776;2023-04-23T04:37:10;100252.84;;;12.54;84.19
52469;BME280;38381;53.688;10.776;2023-04-23T04:42:11;100257.16;;;12.56;83.61
52469;BME280;38381;53.688;10.776;2023-04-23T04:47:12;100258.09;;;12.49;84.37
52469;BME280;38381;53.688;10.776;2023-04-23T04:52:15;100272.94;;;12.36;84.19
52469;BME280;38381;53.688;10.776;2023-04-23T04:57:16;100275.78;;;12.10;85.04
52469;BME280;38381;53.688;10.776;2023-04-23T05:02:17;100275.75;;;12.12;85.17
52469;BME280;38381;53.688;10.776;2023-04-23T05:07:19;100280.06;;;12.11;84.44
52469;BME280;38381;53.688;10.776;2023-04-23T05:12:19;100278.50;;;11.92;84.64
52469;BME280;38381;53.688;10.776;2023-04-23T05:17:19;100293.22;;;11.86;85.19
52469;BME280;38381;53.688;10.776;2023-04-23T05:22:20;100293.28;;;11.74;85.08
52469;BME280;38381;53.688;10.776;2023-04-23T05:27:21;100310.59;;;11.77;85.40
52469;BME280;38381;53.688;10.776;2023-04-23T05:32:21;100311.50;;;11.71;85.32
52469;BME280;38381;53.688;10.776;2023-04-23T05:37:22;100321.00;;;11.72;85.68
52469;BME280;38381;53.688;10.776;2023-04-23T05:42:22;100330.56;;;11.67;85.60
52469;BME280;38381;53.688;10.776;2023-04-23T05:47:23;100341.00;;;11.58;85.50
52469;BME280;38381;53.688;10.776;2023-04-23T05:52:24;100344.50;;;11.51;85.14
52469;BME280;38381;53.688;10.776;2023-04-23T05:57:24;100342.84;;;11.25;85.22
52469;BME280;38381;53.688;10.776;2023-04-23T06:02:25;100348.09;;;11.16;84.95
52469;BME280;38381;53.688;10.776;2023-04-23T06:07:27;100359.31;;;11.08;84.11
52469;BME280;38381;53.688;10.776;2023-04-23T06:12:28;100358.47;;;11.13;82.96
52469;BME280;38381;53.688;10.776;2023-04-23T06:17:28;100364.50;;;11.21;82.06
52469;BME280;38381;53.688;10.776;2023-04-23T06:22:28;100364.50;;;11.07;80.89
52469;BME280;38381;53.688;10.776;2023-04-23T06:27:29;100363.66;;;11.05;80.86
52469;BME280;38381;53.688;10.776;2023-04-23T06:32:29;100374.03;;;11.06;81.48
52469;BME280;38381;53.688;10.776;2023-04-23T06:37:30;100374.03;;;11.11;81.09
52469;BME280;38381;53.688;10.776;2023-04-23T06:42:30;100376.59;;;11.17;79.59
52469;BME280;38381;53.688;10.776;2023-04-23T06:47:31;100384.44;;;11.03;77.81
52469;BME280;38381;53.688;10.776;2023-04-23T06:52:31;100380.09;;;11.01;78.50
52469;BME280;38381;53.688;10.776;2023-04-23T06:57:32;100379.25;;;11.00;76.20
52469;BME280;38381;53.688;10.776;2023-04-23T07:02:32;100386.16;;;10.98;75.62
52469;BME280;38381;53.688;10.776;2023-04-23T07:07:33;100385.31;;;10.90;76.60
52469;BME280;38381;53.688;10.776;2023-04-23T07:12:37;100381.81;;;10.99;77.04
52469;BME280;38381;53.688;10.776;2023-04-23T07:17:38;100387.03;;;10.94;76.51
52469;BME280;38381;53.688;10.776;2023-04-23T07:22:38;100382.72;;;10.92;76.24
52469;BME280;38381;53.688;10.776;2023-04-23T07:27:39;100392.22;;;11.00;75.36
52469;BME280;38381;53.688;10.776;2023-04-23T07:32:39;100394.84;;;10.91;75.15
52469;BME280;38381;53.688;10.776;2023-04-23T07:37:41;100399.13;;;10.92;75.63
52469;BME280;38381;53.688;10.776;2023-04-23T07:42:41;100396.53;;;11.00;75.44
52469;BME280;38381;53.688;10.776;2023-04-23T07:47:42;100399.13;;;11.11;76.07
52469;BME280;38381;53.688;10.776;2023-04-23T07:52:42;100389.59;;;11.22;76.06
52469;BME280;38381;53.688;10.776;2023-04-23T07:57:42;100387.00;;;11.16;75.73
52469;BME280;38381;53.688;10.776;2023-04-23T08:02:43;100385.28;;;11.15;75.21
52469;BME280;38381;53.688;10.776;2023-04-23T08:07:43;100381.78;;;11.25;74.61
52469;BME280;38381;53.688;10.776;2023-04-23T08:12:44;100378.28;;;11.35;74.59
52469;BME280;38381;53.688;10.776;2023-04-23T08:17:44;100373.94;;;11.51;73.71
52469;BME280;38381;53.688;10.776;2023-04-23T08:22:45;100365.22;;;11.63;73.80
52469;BME280;38381;53.688;10.776;2023-04-23T08:27:45;100378.22;;;11.60;73.52
52469;BME280;38381;53.688;10.776;2023-04-23T08:32:48;100374.72;;;11.65;72.92
52469;BME280;38381;53.688;10.776;2023-04-23T08:37:50;100379.03;;;11.68;73.65
52469;BME280;38381;53.688;10.776;2023-04-23T08:42:52;100381.56;;;11.86;73.40
52469;BME280;38381;53.688;10.776;2023-04-23T08:47:58;100379.81;;;11.95;74.46
52469;BME280;38381;53.688;10.776;2023-04-23T08:52:58;100384.84;;;12.28;72.25
52469;BME280;38381;53.688;10.776;2023-04-23T08:57:59;100377.84;;;12.35;70.69
52469;BME280;38381;53.688;10.776;2023-04-23T09:03:00;100379.44;;;12.53;70.44
52469;BME280;38381;53.688;10.776;2023-04-23T09:08:01;100382.66;;;12.84;67.54
52469;BME280;38381;53.688;10.776;2023-04-23T09:13:01;100376.53;;;12.90;66.58
52469;BME280;38381;53.688;10.776;2023-04-23T09:18:02;100368.56;;;13.07;64.41
52469;BME280;38381;53.688;10.776;2023-04-23T09:23:06;100369.28;;;13.21;64.56
52469;BME280;38381;53.688;10.776;2023-04-23T09:28:08;100367.47;;;13.26;65.49
52469;BME280;38381;53.688;10.776;2023-04-23T09:33:10;100363.03;;;13.39;61.46
52469;BME280;38381;53.688;10.776;2023-04-23T09:38:11;100356.78;;;13.53;62.32
52469;BME280;38381;53.688;10.776;2023-04-23T09:43:12;100345.28;;;13.71;61.70
52469;BME280;38381;53.688;10.776;2023-04-23T09:48:12;100342.44;;;13.86;63.35
52469;BME280;38381;53.688;10.776;2023-04-23T09:53:13;100340.50;;;14.02;62.19
52469;BME280;38381;53.688;10.776;2023-04-23T09:58:14;100331.38;;;14.29;62.06
52469;BME280;38381;53.688;10.776;2023-04-23T10:03:14;100334.25;;;14.69;61.73
52469;BME280;38381;53.688;10.776;2023-04-23T10:08:18;100330.44;;;14.89;59.42
52469;BME280;38381;53.688;10.776;2023-04-23T10:13:18;100329.50;;;14.92;60.97
52469;BME280;38381;53.688;10.776;2023-04-23T10:18:19;100326.44;;;15.15;59.75
52469;BME280;38381;53.688;10.776;2023-04-23T10:23:20;100325.22;;;15.33;59.32
52469;BME280;38381;53.688;10.776;2023-04-23T10:28:23;100319.53;;;15.12;57.38
52469;BME280;38381;53.688;10.776;2023-04-23T10:33:30;100323.78;;;15.18;56.42
52469;BME280;38381;53.688;10.776;2023-04-23T10:38:30;100320.69;;;15.42;57.40
52469;BME280;38381;53.688;10.776;2023-04-23T10:43:31;100325.72;;;15.94;53.98
52469;BME280;38381;53.688;10.776;2023-04-23T10:48:50;100336.72;;;16.08;53.36
52469;BME280;38381;53.688;10.776;2023-04-23T10:53:51;100334.94;;;16.10;52.25
52469;BME280;38381;53.688;10.776;2023-04-23T10:58:51;100326.44;;;16.00;52.06
52469;BME280;38381;53.688;10.776;2023-04-23T11:03:52;100309.34;;;16.21;51.35
52469;BME280;38381;53.688;10.776;2023-04-23T11:08:53;100300.25;;;16.36;50.71
52469;BME280;38381;53.688;10.776;2023-04-23T11:13:55;100305.34;;;16.42;51.99
52469;BME280;38381;53.688;10.776;2023-04-23T11:19:00;100302.69;;;16.44;51.65
52469;BME280;38381;53.688;10.776;2023-04-23T11:24:06;100313.56;;;16.63;50.70
52469;BME280;38381;53.688;10.776;2023-04-23T11:29:06;100311.72;;;16.66;51.39
52469;BME280;38381;53.688;10.776;2023-04-23T11:34:07;100304.41;;;16.79;49.06
52469;BME280;38381;53.688;10.776;2023-04-23T11:39:08;100300.75;;;16.86;48.55
52469;BME280;38381;53.688;10.776;2023-04-23T11:44:09;100298.53;;;17.04;48.60
52469;BME280;38381;53.688;10.776;2023-04-23T11:49:11;100299.63;;;16.97;49.96
52469;BME280;38381;53.688;10.776;2023-04-23T11:54:13;100303.50;;;17.15;50.06
52469;BME280;38381;53.688;10.776;2023-04-23T11:59:13;100290.34;;;17.46;49.73
52469;BME280;38381;53.688;10.776;2023-04-23T12:04:17;100291.09;;;17.79;48.16
52469;BME280;38381;53.688;10.776;2023-04-23T12:09:19;100284.94;;;17.52;49.89
52469;BME280;38381;53.688;10.776;2023-04-23T12:14:24;100271.84;;;17.80;50.10
52469;BME280;38381;53.688;10.776;2023-04-23T12:19:28;100253.72;;;17.73;49.38
52469;BME280;38381;53.688;10.776;2023-04-23T12:24:44;100266.94;;;17.98;48.92
52469;BME280;38381;53.688;10.776;2023-04-23T12:29:45;100258.59;;;18.13;47.82
52469;BME280;38381;53.688;10.776;2023-04-23T12:34:54;100273.72;;;17.75;48.23
52469;BME280;38381;53.688;10.776;2023-04-23T12:39:55;100268.78;;;17.36;48.75
52469;BME280;38381;53.688;10.776;2023-04-23T12:45:06;100268.34;;;17.80;48.12
52469;BME280;38381;53.688;10.776;2023-04-23T12:50:07;100254.22;;;18.12;47.85
52469;BME280;38381;53.688;10.776;2023-04-23T12:55:07;100253.56;;;18.32;47.25
52469;BME280;38381;53.688;10.776;2023-04-23T13:00:08;100248.50;;;18.53;48.55
52469;BME280;38381;53.688;10.776;2023-04-23T13:05:08;100253.78;;;18.76;45.84
52469;BME280;38381;53.688;10.776;2023-04-23T13:10:09;100244.09;;;18.53;46.32
52469;BME280;38381;53.688;10.776;2023-04-23T13:15:10;100236.94;;;18.58;47.61
52469;BME280;38381;53.688;10.776;2023-04-23T13:20:12;100242.00;;;18.88;46.61
52469;BME280;38381;53.688;10.776;2023-04-23T13:25:12;100243.47;;;18.20;47.76
52469;BME280;38381;53.688;10.776;2023-04-23T13:30:12;100230.25;;;17.96;48.89
52469;BME280;38381;53.688;10.776;2023-04-23T13:35:13;100225.13;;;17.93;48.72
52469;BME280;38381;53.688;10.776;2023-04-23T13:40:16;100224.25;;;18.69;46.88
52469;BME280;38381;53.688;10.776;2023-04-23T13:45:16;100225.91;;;18.47;47.98
52469;BME280;38381;53.688;10.776;2023-04-23T13:50:17;100215.41;;;18.97;46.62
52469;BME280;38381;53.688;10.776;2023-04-23T13:55:17;100205.06;;;19.16;46.35
52469;BME280;38381;53.688;10.776;2023-04-23T14:00:18;100193.50;;;19.20;45.11
52469;BME280;38381;53.688;10.776;2023-04-23T14:05:18;100191.09;;;19.60;45.20
52469;BME280;38381;53.688;10.776;2023-04-23T14:10:19;100180.19;;;18.78;47.22
52469;BME280;38381;53.688;10.776;2023-04-23T14:15:19;100175.22;;;18.45;46.53
52469;BME280;38381;53.688;10.776;2023-04-23T14:20:20;100168.56;;;18.85;47.71
52469;BME280;38381;53.688;10.776;2023-04-23T14:25:29;100159.31;;;18.49;47.31
52469;BME280;38381;53.688;10.776;2023-04-23T14:30:29;100163.41;;;19.05;47.24
52469;BME280;38381;53.688;10.776;2023-04-23T14:35:30;100148.69;;;19.45;47.84
52469;BME280;38381;53.688;10.776;2023-04-23T14:40:31;100122.94;;;19.76;46.72
52469;BME280;38381;53.688;10.776;2023-04-23T14:45:32;100118.03;;;19.88;43.05
52469;BME280;38381;53.688;10.776;2023-04-23T14:50:32;100124.53;;;19.58;43.74
52469;BME280;38381;53.688;10.776;2023-04-23T14:55:33;100120.13;;;18.92;44.99
52469;BME280;38381;53.688;10.776;2023-04-23T15:00:33;100120.25;;;18.89;44.49
52469;BME280;38381;53.688;10.776;2023-04-23T15:05:33;100111.69;;;19.50;43.38
52469;BME280;38381;53.688;10.776;2023-04-23T15:10:34;100109.31;;;19.00;44.60
52469;BME280;38381;53.688;10.776;2023-04-23T15:15:37;100111.88;;;18.78;45.34
52469;BME280;38381;53.688;10.776;2023-04-23T15:20:42;100117.63;;;18.40;47.51
52469;BME280;38381;53.688;10.776;2023-04-23T15:25:43;100119.31;;;18.18;48.82
52469;BME280;38381;53.688;10.776;2023-04-23T15:30:44;100112.97;;;17.72;49.22
52469;BME280;38381;53.688;10.776;2023-04-23T15:35:44;100114.38;;;17.82;49.25
52469;BME280;38381;53.688;10.776;2023-04-23T15:40:45;100101.81;;;17.66;49.23
52469;BME280;38381;53.688;10.776;2023-04-23T15:45:45;100097.31;;;17.70;49.00
52469;BME280;38381;53.688;10.776;2023-04-23T15:50:47;100090.09;;;17.77;50.24
52469;BME280;38381;53.688;10.776;2023-04-23T15:55:49;100088.53;;;17.98;51.11
52469;BME280;38381;53.688;10.776;2023-04-23T16:00:50;100080.13;;;18.13;49.15
52469;BME280;38381;53.688;10.776;2023-04-23T16:05:51;100075.31;;;17.74;49.44
52469;BME280;38381;53.688;10.776;2023-04-23T16:10:51;100067.06;;;17.86;48.88
52469;BME280;38381;53.688;10.776;2023-04-23T16:15:51;100071.56;;;17.56;50.49
52469;BME280;38381;53.688;10.776;2023-04-23T16:20:52;100058.81;;;17.45;50.33
52469;BME280;38381;53.688;10.776;2023-04-23T16:25:52;100059.00;;;17.39;51.32
52469;BME280;38381;53.688;10.776;2023-04-23T16:30:53;100063.81;;;16.98;52.71
52469;BME280;38381;53.688;10.776;2023-04-23T16:35:53;100059.13;;;17.08;52.40
52469;BME280;38381;53.688;10.776;2023-04-23T16:40:56;100054.41;;;17.19;52.13
52469;BME280;38381;53.688;10.776;2023-04-23T16:45:56;100053.50;;;17.47;51.24
52469;BME280;38381;53.688;10.776;2023-04-23T16:50:57;100058.69;;;17.48;51.57
52469;BME280;38381;53.688;10.776;2023-04-23T16:55:57;100063.16;;;17.72;51.71
52469;BME280;38381;53.688;10.776;2023-04-23T17:00:58;100064.50;;;17.58;53.71
52469;BME280;38381;53.688;10.776;2023-04-23T17:06:08;100067.00;;;17.35;55.23
52469;BME280;38381;53.688;10.776;2023-04-23T17:11:10;100072.09;;;17.13;56.63
52469;BME280;38381;53.688;10.776;2023-04-23T17:16:10;100071.69;;;16.98;57.69
52469;BME280;38381;53.688;10.776;2023-04-23T17:21:11;100057.38;;;16.79;58.87
52469;BME280;38381;53.688;10.776;2023-04-23T17:26:12;100052.63;;;16.63;59.51
52469;BME280;38381;53.688;10.776;2023-04-23T17:31:12;100039.47;;;16.65;59.29
52469;BME280;38381;53.688;10.776;2023-04-23T17:36:12;100035.38;;;16.56;59.94
52469;BME280;38381;53.688;10.776;2023-04-23T17:41:13;100034.59;;;16.53;60.29
52469;BME280;38381;53.688;10.776;2023-04-23T17:46:13;100042.34;;;16.57;60.41
52469;BME280;38381;53.688;10.776;2023-04-23T17:51:14;100047.38;;;16.34;60.92
52469;BME280;38381;53.688;10.776;2023-04-23T17:56:15;100053.78;;;16.23;62.77
52469;BME280;38381;53.688;10.776;2023-04-23T18:01:16;100064.41;;;15.84;63.73
52469;BME280;38381;53.688;10.776;2023-04-23T18:06:16;100051.13;;;15.58;64.18
52469;BME280;38381;53.688;10.776;2023-04-23T18:11:17;100051.59;;;15.39;63.79
52469;BME280;38381;53.688;10.776;2023-04-23T18:16:18;100055.56;;;15.20;65.48
52469;BME280;38381;53.688;10.776;2023-04-23T18:21:18;100051.75;;;14.97;64.61
52469;BME280;38381;53.688;10.776;2023-04-23T18:26:18;100050.28;;;14.84;64.46
52469;BME280;38381;53.688;10.776;2023-04-23T18:31:19;100051.06;;;14.89;63.58
52469;BME280;38381;53.688;10.776;2023-04-23T18:36:30;100058.91;;;14.87;63.65
52469;BME280;38381;53.688;10.776;2023-04-23T18:41:31;100053.88;;;14.78;64.18
52469;BME280;38381;53.688;10.776;2023-04-23T18:46:32;100053.34;;;14.64;64.56
52469;BME280;38381;53.688;10.776;2023-04-23T18:51:37;100057.34;;;14.38;66.34
52469;BME280;38381;53.688;10.776;2023-04-23T18:56:37;100055.22;;;14.57;65.94
52469;BME280;38381;53.688;10.776;2023-04-23T19:01:38;100045.38;;;14.70;65.31
52469;BME280;38381;53.688;10.776;2023-04-23T19:06:39;100047.22;;;14.66;65.33
52469;BME280;38381;53.688;10.776;2023-04-23T19:11:40;100051.38;;;14.74;64.91
52469;BME280;38381;53.688;10.776;2023-04-23T19:16:40;100044.53;;;14.69;64.70
52469;BME280;38381;53.688;10.776;2023-04-23T19:21:41;100050.34;;;14.40;66.30
52469;BME280;38381;53.688;10.776;2023-04-23T19:26:41;100052.00;;;14.44;65.50
52469;BME280;38381;53.688;10.776;2023-04-23T19:31:41;100053.06;;;14.36;65.99
52469;BME280;38381;53.688;10.776;2023-04-23T19:36:42;100035.75;;;14.30;66.17
52469;BME280;38381;53.688;10.776;2023-04-23T19:41:43;100041.72;;;14.35;65.83
52469;BME280;38381;53.688;10.776;2023-04-23T19:46:43;100032.50;;;14.19;66.63
52469;BME280;38381;53.688;10.776;2023-04-23T19:51:44;100022.88;;;14.22;66.44
52469;BME280;38381;53.688;10.776;2023-04-23T19:56:44;100009.09;;;14.16;67.32
52469;BME280;38381;53.688;10.776;2023-04-23T20:01:48;99996.09;;;14.14;66.90
52469;BME280;38381;53.688;10.776;2023-04-23T20:06:49;99996.28;;;14.05;67.81
52469;BME280;38381;53.688;10.776;2023-04-23T20:11:50;99995.53;;;13.98;68.03
52469;BME280;38381;53.688;10.776;2023-04-23T20:16:52;99991.28;;;13.94;68.00
52469;BME280;38381;53.688;10.776;2023-04-23T20:21:53;99980.13;;;13.86;68.50
52469;BME280;38381;53.688;10.776;2023-04-23T20:26:53;99977.59;;;13.84;69.24
52469;BME280;38381;53.688;10.776;2023-04-23T20:31:53;99984.72;;;13.73;69.16
52469;BME280;38381;53.688;10.776;2023-04-23T20:36:56;99979.75;;;13.61;69.79
52469;BME280;38381;53.688;10.776;2023-04-23T20:41:58;99967.63;;;13.60;69.92
52469;BME280;38381;53.688;10.776;2023-04-23T20:47:00;99960.81;;;13.53;70.55
52469;BME280;38381;53.688;10.776;2023-04-23T20:52:04;99954.03;;;13.42;71.50
52469;BME280;38381;53.688;10.776;2023-04-23T20:57:04;99947.88;;;13.48;71.50
52469;BME280;38381;53.688;10.776;2023-04-23T21:02:05;99930.69;;;13.38;72.02
52469;BME280;38381;53.688;10.776;2023-04-23T21:07:06;99924.00;;;13.21;72.88
52469;BME280;38381;53.688;10.776;2023-04-23T21:12:07;99930.19;;;13.16;73.20
52469;BME280;38381;53.688;10.776;2023-04-23T21:17:07;99922.69;;;12.97;74.27
52469;BME280;38381;53.688;10.776;2023-04-23T21:22:08;99919.38;;;12.87;74.44
52469;BME280;38381;53.688;10.776;2023-04-23T21:27:11;99912.59;;;12.77;74.28
52469;BME280;38381;53.688;10.776;2023-04-23T21:32:15;99895.22;;;12.79;74.23
52469;BME280;38381;53.688;10.776;2023-04-23T21:37:15;99891.03;;;12.71;73.58
52469;BME280;38381;53.688;10.776;2023-04-23T21:42:15;99880.63;;;12.71;73.52
52469;BME280;38381;53.688;10.776;2023-04-23T21:47:16;99870.31;;;12.64;72.97
52469;BME280;38381;53.688;10.776;2023-04-23T21:52:16;99863.44;;;12.60;73.17
52469;BME280;38381;53.688;10.776;2023-04-23T21:57:17;99860.94;;;12.54;73.00
52469;BME280;38381;53.688;10.776;2023-04-23T22:02:17;99856.59;;;12.56;72.07
52469;BME280;38381;53.688;10.776;2023-04-23T22:07:18;99861.66;;;12.64;71.68
52469;BME280;38381;53.688;10.776;2023-04-23T22:12:18;99847.06;;;12.55;71.40
52469;BME280;38381;53.688;10.776;2023-04-23T22:17:19;99835.59;;;12.67;71.22
52469;BME280;38381;53.688;10.776;2023-04-23T22:22:20;99829.56;;;12.65;70.64
52469;BME280;38381;53.688;10.776;2023-04-23T22:27:23;99813.19;;;12.58;70.44
52469;BME280;38381;53.688;10.776;2023-04-23T22:32:24;99816.72;;;12.56;70.82
52469;BME280;38381;53.688;10.776;2023-04-23T22:37:24;99802.69;;;12.64;70.36
52469;BME280;38381;53.688;10.776;2023-04-23T22:42:25;99794.78;;;12.69;69.99
52469;BME280;38381;53.688;10.776;2023-04-23T22:47:26;99789.06;;;12.50;70.73
52469;BME280;38381;53.688;10.776;2023-04-23T22:52:26;99784.75;;;12.49;70.52
52469;BME280;38381;53.688;10.776;2023-04-23T22:57:27;99782.19;;;12.47;70.88
52469;BME280;38381;53.688;10.776;2023-04-23T23:02:28;99779.50;;;12.51;70.73
52469;BME280;38381;53.688;10.776;2023-04-23T23:07:28;99774.41;;;12.46;71.02
52469;BME280;38381;53.688;10.776;2023-04-23T23:12:29;99755.38;;;12.44;70.74
52469;BME280;38381;53.688;10.776;2023-04-23T23:17:29;99756.22;;;12.44;70.92
52469;BME280;38381;53.688;10.776;2023-04-23T23:22:29;99747.78;;;12.32;70.97
52469;BME280;38381;53.688;10.776;2023-04-23T23:27:30;99743.38;;;12.35;71.25
52469;BME280;38381;53.688;10.776;2023-04-23T23:32:31;99731.34;;;12.30;71.30
52469;BME280;38381;53.688;10.776;2023-04-23T23:37:32;99736.56;;;12.28;71.34
52469;BME280;38381;53.688;10.776;2023-04-23T23:42:33;99721.66;;;12.38;70.99
52469;BME280;38381;53.688;10.776;2023-04-23T23:47:33;99711.47;;;12.25;71.59
52469;BME280;38381;53.688;10.776;2023-04-23T23:52:33;99709.81;;;12.23;71.61
52469;BME280;38381;53.688;10.776;2023-04-23T23:57:34;99710.41;;;12.39;70.94
